Time,TemperatureF,DewpointF,PressureIn,WindDirection,WindDirectionDegrees,WindSpeedMPH,WindSpeedGustMPH,Humidity,HourlyPrecipIn,Conditions,Clouds,dailyrainin,SoftwareType,DateUTC
2013-01-23 00:03:00,32.4,10.2,30.21,NW,315,6.0,18.0,39,0.00,,,-99.99,WeatherLink 6.0.0,2013-01-23 05:03:00,
2013-01-23 00:04:00,32.4,9.6,30.21,NW,318,10.0,10.0,38,0.00,,,0.00,Wunderground v.1.15,2013-01-23 05:04:00,
2013-01-23 00:06:00,32.4,9.6,30.21,NW,321,7.0,10.0,38,0.00,,,0.00,Wunderground v.1.15,2013-01-23 05:06:00,
2013-01-23 00:12:00,32.4,10.2,30.21,WNW,285,7.0,9.0,39,0.00,,,0.00,Wunderground v.1.15,2013-01-23 05:12:00,
2013-01-23 00:17:00,32.4,10.2,30.21,WNW,296,6.0,14.0,39,0.00,,,0.00,Wunderground v.1.15,2013-01-23 05:17:00,
2013-01-23 00:23:00,32.3,10.1,30.21,NW,319,5.0,8.0,39,0.00,,,0.00,Wunderground v.1.15,2013-01-23 05:23:00,
2013-01-23 00:28:00,32.2,10.0,30.21,NW,318,3.0,8.0,39,0.00,,,0.00,Wunderground v.1.15,2013-01-23 05:28:00,
2013-01-23 00:33:00,32.2,10.5,30.21,NW,315,7.0,19.0,40,0.00,,,-99.99,WeatherLink 6.0.0,2013-01-23 05:33:00,
2013-01-23 00:39:00,32.0,10.4,30.21,NW,311,4.0,10.0,40,0.00,,,0.00,Wunderground v.1.15,2013-01-23 05:39:00,
2013-01-23 00:45:00,31.9,10.3,30.21,NW,307,10.0,10.0,40,0.00,,,0.00,Wunderground v.1.15,2013-01-23 05:45:00,
2013-01-23 00:50:00,31.9,10.3,30.22,NW,323,5.0,5.0,40,0.00,,,0.00,Wunderground v.1.15,2013-01-23 05:50:00,
2013-01-23 00:56:00,31.7,10.1,30.22,WNW,292,5.0,5.0,40,0.00,,,0.00,Wunderground v.1.15,2013-01-23 05:56:00,
2013-01-23 01:01:00,31.7,10.1,30.22,WNW,297,4.0,7.0,40,0.00,,,0.00,Wunderground v.1.15,2013-01-23 06:01:00,
2013-01-23 01:07:00,31.7,11.2,30.22,West,277,4.0,7.0,42,0.00,,,0.00,Wunderground v.1.15,2013-01-23 06:07:00,
2013-01-23 01:12:00,31.7,10.1,30.22,WNW,293,2.0,11.0,40,0.00,,,0.00,Wunderground v.1.15,2013-01-23 06:12:00,
2013-01-23 01:18:00,31.7,10.1,30.22,NW,306,10.0,11.0,40,0.00,,,0.00,Wunderground v.1.15,2013-01-23 06:18:00,
2013-01-23 01:23:00,31.6,9.4,30.22,NW,319,6.0,7.0,39,0.00,,,0.00,Wunderground v.1.15,2013-01-23 06:23:00,
2013-01-23 01:29:00,31.5,9.9,30.22,WNW,296,11.0,11.0,40,0.00,,,0.00,Wunderground v.1.15,2013-01-23 06:29:00,
2013-01-23 01:34:00,31.5,10.5,30.23,WNW,292,1.0,11.0,41,0.00,,,0.00,Wunderground v.1.15,2013-01-23 06:34:00,
2013-01-23 01:39:00,31.5,9.4,30.23,WNW,295,4.0,11.0,39,0.00,,,0.00,Wunderground v.1.15,2013-01-23 06:39:00,
2013-01-23 01:45:00,31.4,9.8,30.23,WNW,288,4.0,7.0,40,0.00,,,0.00,Wunderground v.1.15,2013-01-23 06:45:00,
2013-01-23 01:50:00,31.5,9.9,30.23,WNW,298,5.0,5.0,40,0.00,,,0.00,Wunderground v.1.15,2013-01-23 06:50:00,
2013-01-23 01:56:00,31.6,9.4,30.23,WNW,294,6.0,10.0,39,0.00,,,0.00,Wunderground v.1.15,2013-01-23 06:56:00,
2013-01-23 02:01:00,31.6,10.0,30.23,NW,309,3.0,5.0,40,0.00,,,0.00,Wunderground v.1.15,2013-01-23 07:01:00,
2013-01-23 02:06:00,31.7,11.2,30.23,WNW,303,4.0,13.0,42,0.00,,,0.00,Wunderground v.1.15,2013-01-23 07:06:00,
2013-01-23 02:11:00,31.8,10.2,30.23,WNW,294,11.0,13.0,40,0.00,,,0.00,Wunderground v.1.15,2013-01-23 07:11:00,
2013-01-23 02:16:00,31.9,10.3,30.23,NW,316,2.0,13.0,40,0.00,,,0.00,Wunderground v.1.15,2013-01-23 07:16:00,
2013-01-23 02:21:00,32.0,10.4,30.23,WNW,286,1.0,12.0,40,0.00,,,0.00,Wunderground v.1.15,2013-01-23 07:21:00,
2013-01-23 02:26:00,32.0,10.4,30.24,WNW,282,2.0,12.0,40,0.00,,,0.00,Wunderground v.1.15,2013-01-23 07:26:00,
2013-01-23 02:30:00,32.0,10.9,30.24,WNW,292,5.0,16.0,41,0.00,,,-99.99,WeatherLink 6.0.0,2013-01-23 07:30:00,
2013-01-23 02:31:00,32.0,11.5,30.23,WNW,288,3.0,12.0,42,0.00,,,0.00,Wunderground v.1.15,2013-01-23 07:31:00,
2013-01-23 02:36:00,31.9,10.3,30.24,West,276,7.0,12.0,40,0.00,,,0.00,Wunderground v.1.15,2013-01-23 07:36:00,
2013-01-23 02:41:00,31.8,11.3,30.24,WNW,284,3.0,6.0,42,0.00,,,0.00,Wunderground v.1.15,2013-01-23 07:41:00,
2013-01-23 02:46:00,31.7,10.7,30.24,WNW,294,1.0,11.0,41,0.00,,,0.00,Wunderground v.1.15,2013-01-23 07:46:00,
2013-01-23 02:52:00,31.6,10.0,30.24,WNW,283,1.0,4.0,40,0.00,,,0.00,Wunderground v.1.15,2013-01-23 07:52:00,
2013-01-23 02:57:00,31.4,10.4,30.24,WNW,299,4.0,9.0,41,0.00,,,0.00,Wunderground v.1.15,2013-01-23 07:57:00,
2013-01-23 03:02:00,31.3,10.3,30.25,WNW,290,4.0,7.0,41,0.00,,,0.00,Wunderground v.1.15,2013-01-23 08:02:00,
2013-01-23 03:07:00,31.4,10.4,30.25,WNW,298,4.0,9.0,41,0.00,,,0.00,Wunderground v.1.15,2013-01-23 08:07:00,
2013-01-23 03:12:00,31.5,11.0,30.25,WNW,290,4.0,12.0,42,0.00,,,0.00,Wunderground v.1.15,2013-01-23 08:12:00,
2013-01-23 03:17:00,31.7,11.2,30.24,WNW,289,2.0,16.0,42,0.00,,,0.00,Wunderground v.1.15,2013-01-23 08:17:00,
2013-01-23 03:22:00,31.9,11.4,30.24,WNW,292,5.0,13.0,42,0.00,,,0.00,Wunderground v.1.15,2013-01-23 08:22:00,
2013-01-23 03:27:00,31.8,10.7,30.24,WNW,298,2.0,13.0,41,0.00,,,0.00,Wunderground v.1.15,2013-01-23 08:27:00,
2013-01-23 03:32:00,31.7,10.7,30.24,WNW,291,3.0,7.0,41,0.00,,,0.00,Wunderground v.1.15,2013-01-23 08:32:00,
2013-01-23 03:37:00,31.6,11.6,30.24,NW,318,9.0,14.0,43,0.00,,,0.00,Wunderground v.1.15,2013-01-23 08:37:00,
2013-01-23 03:42:00,31.7,11.2,30.24,WNW,294,11.0,11.0,42,0.00,,,0.00,Wunderground v.1.15,2013-01-23 08:42:00,
2013-01-23 03:47:00,31.9,11.4,30.24,West,279,0.0,12.0,42,0.00,,,0.00,Wunderground v.1.15,2013-01-23 08:47:00,
2013-01-23 03:52:00,31.8,12.3,30.24,WNW,291,5.0,15.0,44,0.00,,,0.00,Wunderground v.1.15,2013-01-23 08:52:00,
2013-01-23 03:57:00,31.8,11.3,30.24,WNW,282,3.0,15.0,42,0.00,,,0.00,Wunderground v.1.15,2013-01-23 08:57:00,
2013-01-23 04:02:00,31.8,11.3,30.24,WNW,302,6.0,11.0,42,0.00,,,0.00,Wunderground v.1.15,2013-01-23 09:02:00,
2013-01-23 04:07:00,31.7,11.7,30.24,WNW,287,4.0,11.0,43,0.00,,,0.00,Wunderground v.1.15,2013-01-23 09:07:00,
2013-01-23 04:12:00,31.7,11.7,30.24,NW,325,5.0,12.0,43,0.00,,,0.00,Wunderground v.1.15,2013-01-23 09:12:00,
2013-01-23 04:17:00,31.9,11.9,30.24,NW,318,5.0,12.0,43,0.00,,,0.00,Wunderground v.1.15,2013-01-23 09:17:00,
2013-01-23 04:22:00,32.0,12.0,30.24,WNW,295,1.0,11.0,43,0.00,,,0.00,Wunderground v.1.15,2013-01-23 09:22:00,
2013-01-23 04:27:00,31.9,12.4,30.25,NW,322,17.0,17.0,44,0.00,,,0.00,Wunderground v.1.15,2013-01-23 09:27:00,
2013-01-23 04:30:00,32.0,13.0,30.25,NW,315,5.0,19.0,45,0.00,,,-99.99,WeatherLink 6.0.0,2013-01-23 09:30:00,
2013-01-23 04:33:00,32.1,12.6,30.25,West,281,3.0,7.0,44,0.00,,,0.00,Wunderground v.1.15,2013-01-23 09:33:00,
2013-01-23 04:38:00,32.0,12.0,30.25,NW,311,4.0,10.0,43,0.00,,,0.00,Wunderground v.1.15,2013-01-23 09:38:00,
2013-01-23 04:43:00,32.0,13.5,30.25,NW,317,6.0,6.0,46,0.00,,,0.00,Wunderground v.1.15,2013-01-23 09:43:00,
2013-01-23 04:48:00,31.9,12.9,30.24,WNW,287,2.0,7.0,45,0.00,,,0.00,Wunderground v.1.15,2013-01-23 09:48:00,
2013-01-23 04:53:00,31.9,11.9,30.24,WNW,300,2.0,8.0,43,0.00,,,0.00,Wunderground v.1.15,2013-01-23 09:53:00,
2013-01-23 04:58:00,31.9,12.9,30.25,WNW,283,2.0,8.0,45,0.00,,,0.00,Wunderground v.1.15,2013-01-23 09:58:00,
2013-01-23 05:03:00,31.9,12.9,30.25,West,279,4.0,4.0,45,0.00,,,0.00,Wunderground v.1.15,2013-01-23 10:03:00,
2013-01-23 05:08:00,31.9,12.9,30.25,NW,306,10.0,10.0,45,0.00,,,0.00,Wunderground v.1.15,2013-01-23 10:08:00,
2013-01-23 05:13:00,31.9,12.9,30.25,WNW,285,4.0,4.0,45,0.00,,,0.00,Wunderground v.1.15,2013-01-23 10:13:00,
2013-01-23 05:18:00,31.8,12.3,30.25,WNW,284,2.0,7.0,44,0.00,,,0.00,Wunderground v.1.15,2013-01-23 10:18:00,
2013-01-23 05:23:00,31.8,12.8,30.25,NW,306,2.0,5.0,45,0.00,,,0.00,Wunderground v.1.15,2013-01-23 10:23:00,
2013-01-23 05:28:00,31.9,12.9,30.25,WNW,288,2.0,6.0,45,0.00,,,0.00,Wunderground v.1.15,2013-01-23 10:28:00,
2013-01-23 05:33:00,31.9,13.4,30.25,WNW,292,3.0,11.0,46,0.00,,,-99.99,WeatherLink 6.0.0,2013-01-23 10:33:00,
2013-01-23 05:38:00,31.9,13.4,30.26,WNW,300,0.0,4.0,46,0.00,,,0.00,Wunderground v.1.15,2013-01-23 10:38:00,
2013-01-23 05:43:00,31.9,12.9,30.26,NW,311,1.0,4.0,45,0.00,,,0.00,Wunderground v.1.15,2013-01-23 10:43:00,
2013-01-23 05:48:00,31.9,13.4,30.26,NW,318,1.0,6.0,46,0.00,,,0.00,Wunderground v.1.15,2013-01-23 10:48:00,
2013-01-23 05:53:00,31.9,12.9,30.26,WNW,285,5.0,7.0,45,0.00,,,0.00,Wunderground v.1.15,2013-01-23 10:53:00,
2013-01-23 05:58:00,31.9,13.4,30.26,NW,307,3.0,7.0,46,0.00,,,0.00,Wunderground v.1.15,2013-01-23 10:58:00,
2013-01-23 06:03:00,31.9,13.9,30.26,NW,307,3.0,9.0,47,0.00,,,0.00,Wunderground v.1.15,2013-01-23 11:03:00,
2013-01-23 06:08:00,31.9,12.9,30.27,NW,306,4.0,13.0,45,0.00,,,0.00,Wunderground v.1.15,2013-01-23 11:08:00,
2013-01-23 06:13:00,31.9,13.9,30.27,NNW,342,7.0,7.0,47,0.00,,,0.00,Wunderground v.1.15,2013-01-23 11:13:00,
2013-01-23 06:18:00,32.0,14.0,30.26,WNW,302,5.0,9.0,47,0.00,,,0.00,Wunderground v.1.15,2013-01-23 11:18:00,
2013-01-23 06:24:00,32.0,14.0,30.26,WNW,300,5.0,6.0,47,0.00,,,0.00,Wunderground v.1.15,2013-01-23 11:24:00,
2013-01-23 06:29:00,32.1,14.6,30.26,NW,304,3.0,11.0,48,0.00,,,0.00,Wunderground v.1.15,2013-01-23 11:29:00,
2013-01-23 06:34:00,32.1,14.1,30.27,WNW,294,4.0,7.0,47,0.00,,,0.00,Wunderground v.1.15,2013-01-23 11:34:00,
2013-01-23 06:39:00,32.1,14.1,30.27,NW,306,4.0,11.0,47,0.00,,,0.00,Wunderground v.1.15,2013-01-23 11:39:00,
2013-01-23 06:44:00,32.1,14.1,30.27,WNW,284,4.0,12.0,47,0.00,,,0.00,Wunderground v.1.15,2013-01-23 11:44:00,
2013-01-23 06:49:00,32.1,14.6,30.27,NW,314,3.0,12.0,48,0.00,,,0.00,Wunderground v.1.15,2013-01-23 11:49:00,
2013-01-23 06:54:00,32.1,14.6,30.27,WNW,283,4.0,7.0,48,0.00,,,0.00,Wunderground v.1.15,2013-01-23 11:54:00,
2013-01-23 06:59:00,32.0,14.5,30.28,WNW,286,5.0,10.0,48,0.00,,,0.00,Wunderground v.1.15,2013-01-23 11:59:00,
2013-01-23 07:04:00,32.1,15.1,30.28,WNW,297,6.0,11.0,49,0.00,,,0.00,Wunderground v.1.15,2013-01-23 12:04:00,
2013-01-23 07:09:00,32.1,14.6,30.28,NNW,342,2.0,12.0,48,0.00,,,0.00,Wunderground v.1.15,2013-01-23 12:09:00,
2013-01-23 07:14:00,32.0,14.0,30.28,NW,312,7.0,11.0,47,0.00,,,0.00,Wunderground v.1.15,2013-01-23 12:14:00,
2013-01-23 07:19:00,31.9,14.4,30.28,NW,306,4.0,12.0,48,0.00,,,0.00,Wunderground v.1.15,2013-01-23 12:19:00,
2013-01-23 07:24:00,31.9,14.4,30.28,NW,318,2.0,8.0,48,0.00,,,0.00,Wunderground v.1.15,2013-01-23 12:24:00,
2013-01-23 07:29:00,31.9,14.4,30.28,West,281,3.0,11.0,48,0.00,,,0.00,Wunderground v.1.15,2013-01-23 12:29:00,
2013-01-23 07:34:00,31.9,14.4,30.28,WNW,303,4.0,10.0,48,0.00,,,0.00,Wunderground v.1.15,2013-01-23 12:34:00,
2013-01-23 07:39:00,31.9,14.4,30.28,WNW,290,6.0,10.0,48,0.00,,,0.00,Wunderground v.1.15,2013-01-23 12:39:00,
2013-01-23 07:44:00,32.0,14.5,30.28,NW,315,2.0,10.0,48,0.00,,,0.00,Wunderground v.1.15,2013-01-23 12:44:00,
2013-01-23 07:49:00,32.0,14.5,30.28,NW,311,1.0,10.0,48,0.00,,,0.00,Wunderground v.1.15,2013-01-23 12:49:00,
2013-01-23 07:54:00,32.1,15.1,30.28,WNW,299,1.0,7.0,49,0.00,,,0.00,Wunderground v.1.15,2013-01-23 12:54:00,
2013-01-23 07:59:00,32.1,15.1,30.29,NW,318,4.0,7.0,49,0.00,,,0.00,Wunderground v.1.15,2013-01-23 12:59:00,
2013-01-23 08:04:00,32.2,17.0,30.28,NW,321,3.0,5.0,53,0.00,,,0.00,Wunderground v.1.15,2013-01-23 13:04:00,
2013-01-23 08:09:00,32.3,15.7,30.29,WNW,300,2.0,5.0,50,0.00,,,0.00,Wunderground v.1.15,2013-01-23 13:09:00,
2013-01-23 08:14:00,32.4,15.8,30.29,WNW,293,5.0,11.0,50,0.00,,,0.00,Wunderground v.1.15,2013-01-23 13:14:00,
2013-01-23 08:19:00,32.5,15.9,30.29,WNW,296,0.0,11.0,50,0.00,,,0.00,Wunderground v.1.15,2013-01-23 13:19:00,
2013-01-23 08:24:00,32.7,16.1,30.29,WNW,284,3.0,7.0,50,0.00,,,0.00,Wunderground v.1.15,2013-01-23 13:24:00,
2013-01-23 08:29:00,32.9,16.7,30.29,WNW,299,1.0,2.0,51,0.00,,,0.00,Wunderground v.1.15,2013-01-23 13:29:00,
2013-01-23 08:34:00,32.8,16.6,30.29,NW,322,10.0,10.0,51,0.00,,,0.00,Wunderground v.1.15,2013-01-23 13:34:00,
2013-01-23 08:39:00,32.8,16.2,30.29,WNW,292,2.0,3.0,50,0.00,,,0.00,Wunderground v.1.15,2013-01-23 13:39:00,
2013-01-23 08:44:00,32.8,17.1,30.29,NW,326,5.0,11.0,52,0.00,,,0.00,Wunderground v.1.15,2013-01-23 13:44:00,
2013-01-23 08:50:00,32.7,16.5,30.28,WNW,294,4.0,4.0,51,0.00,,,0.00,Wunderground v.1.15,2013-01-23 13:50:00,
2013-01-23 08:55:00,32.6,16.0,30.28,NW,317,2.0,10.0,50,0.00,,,0.00,Wunderground v.1.15,2013-01-23 13:55:00,
2013-01-23 08:59:00,32.6,16.9,30.28,NNW,341,3.0,4.0,52,0.00,,,0.00,Wunderground v.1.15,2013-01-23 13:59:00,
2013-01-23 09:04:00,32.7,16.5,30.28,North,355,1.0,7.0,51,0.00,,,0.00,Wunderground v.1.15,2013-01-23 14:04:00,
2013-01-23 09:10:00,32.8,17.5,30.28,North,355,0.0,3.0,53,0.00,,,0.00,Wunderground v.1.15,2013-01-23 14:10:00,
2013-01-23 09:15:00,33.1,17.4,30.29,WNW,286,2.0,6.0,52,0.00,,,0.00,Wunderground v.1.15,2013-01-23 14:15:00,
2013-01-23 09:20:00,33.5,18.2,30.29,NW,316,4.0,4.0,53,0.00,,,0.00,Wunderground v.1.15,2013-01-23 14:20:00,
2013-01-23 09:25:00,34.0,18.2,30.29,NW,317,4.0,18.0,52,0.00,,,0.00,Wunderground v.1.15,2013-01-23 14:25:00,
2013-01-23 09:30:00,34.4,18.6,30.29,WNW,289,1.0,4.0,52,0.00,,,0.00,Wunderground v.1.15,2013-01-23 14:30:00,
2013-01-23 09:35:00,34.9,18.6,30.28,NW,304,4.0,9.0,51,0.00,,,0.00,Wunderground v.1.15,2013-01-23 14:35:00,
2013-01-23 09:40:00,35.2,18.9,30.28,NW,304,2.0,3.0,51,0.00,,,0.00,Wunderground v.1.15,2013-01-23 14:40:00,
2013-01-23 09:45:00,35.5,19.1,30.28,WNW,300,2.0,6.0,51,0.00,,,0.00,Wunderground v.1.15,2013-01-23 14:45:00,
2013-01-23 09:50:00,35.7,19.3,30.28,West,278,1.0,3.0,51,0.00,,,0.00,Wunderground v.1.15,2013-01-23 14:50:00,
2013-01-23 09:55:00,36.0,19.6,30.28,WNW,292,3.0,12.0,51,0.00,,,0.00,Wunderground v.1.15,2013-01-23 14:55:00,
2013-01-23 10:00:00,36.2,18.9,30.29,West,281,2.0,6.0,49,0.00,,,0.00,Wunderground v.1.15,2013-01-23 15:00:00,
2013-01-23 10:05:00,36.3,19.4,30.29,NNW,341,1.0,6.0,50,0.00,,,0.00,Wunderground v.1.15,2013-01-23 15:05:00,
2013-01-23 10:10:00,36.7,19.8,30.29,West,275,4.0,4.0,50,0.00,,,0.00,Wunderground v.1.15,2013-01-23 15:10:00,
2013-01-23 10:15:00,36.8,19.4,30.30,NNW,340,6.0,9.0,49,0.00,,,0.00,Wunderground v.1.15,2013-01-23 15:15:00,
2013-01-23 10:20:00,36.8,19.4,30.30,WNW,299,9.0,9.0,49,0.00,,,0.00,Wunderground v.1.15,2013-01-23 15:20:00,
2013-01-23 10:25:00,36.8,19.4,30.30,NW,304,6.0,14.0,49,0.00,,,0.00,Wunderground v.1.15,2013-01-23 15:25:00,
2013-01-23 10:30:00,36.8,19.4,30.30,WNW,288,4.0,6.0,49,0.00,,,0.00,Wunderground v.1.15,2013-01-23 15:30:00,
2013-01-23 10:35:00,37.1,20.2,30.30,WNW,286,3.0,6.0,50,0.00,,,0.00,Wunderground v.1.15,2013-01-23 15:35:00,
2013-01-23 10:40:00,37.6,19.7,30.30,WNW,285,1.0,4.0,48,0.00,,,0.00,Wunderground v.1.15,2013-01-23 15:40:00,
2013-01-23 10:45:00,37.8,19.3,30.29,WNW,284,2.0,10.0,47,0.00,,,0.00,Wunderground v.1.15,2013-01-23 15:45:00,
2013-01-23 10:50:00,38.0,20.0,30.28,NW,308,0.0,2.0,48,0.00,,,0.00,Wunderground v.1.15,2013-01-23 15:50:00,
2013-01-23 10:55:00,37.8,19.8,30.28,NW,324,3.0,7.0,48,0.00,,,0.00,Wunderground v.1.15,2013-01-23 15:55:00,
2013-01-23 11:00:00,38.0,19.5,30.28,WNW,295,1.0,4.0,47,0.00,,,0.00,Wunderground v.1.15,2013-01-23 16:00:00,
2013-01-23 11:05:00,38.1,20.1,30.28,WSW,254,1.0,5.0,48,0.00,,,0.00,Wunderground v.1.15,2013-01-23 16:05:00,
2013-01-23 11:11:00,38.6,20.1,30.28,WSW,240,0.0,2.0,47,0.00,,,0.00,Wunderground v.1.15,2013-01-23 16:11:00,
2013-01-23 11:16:00,39.1,19.5,30.28,WSW,258,0.0,4.0,45,0.00,,,0.00,Wunderground v.1.15,2013-01-23 16:16:00,
2013-01-23 11:21:00,39.8,20.2,30.27,West,263,4.0,4.0,45,0.00,,,0.00,Wunderground v.1.15,2013-01-23 16:21:00,
2013-01-23 11:26:00,39.9,19.2,30.27,SSE,167,3.0,8.0,43,0.00,,,0.00,Wunderground v.1.15,2013-01-23 16:26:00,
2013-01-23 11:31:00,40.2,19.5,30.26,South,186,0.0,4.0,43,0.00,,,0.00,Wunderground v.1.15,2013-01-23 16:31:00,
2013-01-23 11:36:00,40.6,20.9,30.26,WNW,294,3.0,5.0,45,0.00,,,0.00,Wunderground v.1.15,2013-01-23 16:36:00,
2013-01-23 11:41:00,40.9,19.0,30.26,West,275,4.0,6.0,41,0.00,,,0.00,Wunderground v.1.15,2013-01-23 16:41:00,
2013-01-23 11:46:00,40.6,18.7,30.26,WSW,246,1.0,6.0,41,0.00,,,0.00,Wunderground v.1.15,2013-01-23 16:46:00,
2013-01-23 11:51:00,40.6,18.7,30.26,East,84,0.0,3.0,41,0.00,,,0.00,Wunderground v.1.15,2013-01-23 16:51:00,
2013-01-23 11:56:00,41.1,19.7,30.25,SE,142,3.0,7.0,42,0.00,,,0.00,Wunderground v.1.15,2013-01-23 16:56:00,
2013-01-23 12:00:00,41.5,20.1,30.25,SSW,202,2.0,7.0,42,0.00,,,-99.99,WeatherLink 6.0.0,2013-01-23 17:00:00,
2013-01-23 12:01:00,41.6,19.6,30.24,SSE,157,1.0,5.0,41,0.00,,,0.00,Wunderground v.1.15,2013-01-23 17:01:00,
2013-01-23 12:06:00,42.1,19.5,30.24,SSW,205,2.0,5.0,40,0.00,,,0.00,Wunderground v.1.15,2013-01-23 17:06:00,
2013-01-23 12:11:00,41.7,18.5,30.24,NW,310,0.0,3.0,39,0.00,,,0.00,Wunderground v.1.15,2013-01-23 17:11:00,
2013-01-23 12:16:00,42.2,20.2,30.23,WSW,248,1.0,3.0,41,0.00,,,0.00,Wunderground v.1.15,2013-01-23 17:16:00,
2013-01-23 12:21:00,42.5,19.8,30.23,SW,223,1.0,2.0,40,0.00,,,0.00,Wunderground v.1.15,2013-01-23 17:21:00,
2013-01-23 12:26:00,42.6,20.5,30.22,West,261,2.0,5.0,41,0.00,,,0.00,Wunderground v.1.15,2013-01-23 17:26:00,
2013-01-23 12:31:00,42.9,21.4,30.22,SW,214,1.0,2.0,42,0.00,,,0.00,Wunderground v.1.15,2013-01-23 17:31:00,
2013-01-23 12:36:00,43.3,21.7,30.22,SSW,200,1.0,4.0,42,0.00,,,0.00,Wunderground v.1.15,2013-01-23 17:36:00,
2013-01-23 12:41:00,43.9,20.5,30.21,West,272,0.0,1.0,39,0.00,,,0.00,Wunderground v.1.15,2013-01-23 17:41:00,
2013-01-23 12:46:00,43.8,21.0,30.20,NW,318,2.0,4.0,40,0.00,,,0.00,Wunderground v.1.15,2013-01-23 17:46:00,
2013-01-23 12:51:00,43.4,20.7,30.20,WSW,238,0.0,4.0,40,0.00,,,0.00,Wunderground v.1.15,2013-01-23 17:51:00,
2013-01-23 12:56:00,43.6,21.4,30.20,NW,320,1.0,6.0,41,0.00,,,0.00,Wunderground v.1.15,2013-01-23 17:56:00,
2013-01-23 13:01:00,43.6,21.4,30.19,NW,315,4.0,4.0,41,0.00,,,0.00,Wunderground v.1.15,2013-01-23 18:01:00,
2013-01-23 13:07:00,43.3,21.7,30.19,NW,313,5.0,11.0,42,0.00,,,0.00,Wunderground v.1.15,2013-01-23 18:07:00,
2013-01-23 13:12:00,43.1,22.1,30.19,NW,311,3.0,6.0,43,0.00,,,0.00,Wunderground v.1.15,2013-01-23 18:12:00,
2013-01-23 13:17:00,43.0,22.0,30.19,North,355,1.0,7.0,43,0.00,,,0.00,Wunderground v.1.15,2013-01-23 18:17:00,
2013-01-23 13:22:00,43.1,22.1,30.18,WNW,291,8.0,8.0,43,0.00,,,0.00,Wunderground v.1.15,2013-01-23 18:22:00,
2013-01-23 13:27:00,43.0,22.0,30.18,NW,313,5.0,14.0,43,0.00,,,0.00,Wunderground v.1.15,2013-01-23 18:27:00,
2013-01-23 13:32:00,43.1,22.1,30.17,WNW,294,2.0,5.0,43,0.00,,,0.00,Wunderground v.1.15,2013-01-23 18:32:00,
2013-01-23 13:37:00,43.7,22.1,30.17,NNW,335,3.0,5.0,42,0.00,,,0.00,Wunderground v.1.15,2013-01-23 18:37:00,
2013-01-23 13:42:00,44.2,22.5,30.16,WNW,292,3.0,6.0,42,0.00,,,0.00,Wunderground v.1.15,2013-01-23 18:42:00,
2013-01-23 13:47:00,44.3,23.2,30.16,NNW,329,3.0,10.0,43,0.00,,,0.00,Wunderground v.1.15,2013-01-23 18:47:00,
2013-01-23 13:52:00,44.2,22.5,30.16,WNW,294,2.0,8.0,42,0.00,,,0.00,Wunderground v.1.15,2013-01-23 18:52:00,
2013-01-23 13:57:00,44.1,23.0,30.16,NNW,336,7.0,8.0,43,0.00,,,0.00,Wunderground v.1.15,2013-01-23 18:57:00,
2013-01-23 14:02:00,44.5,23.4,30.16,NW,312,3.0,9.0,43,0.00,,,0.00,Wunderground v.1.15,2013-01-23 19:02:00,
2013-01-23 14:07:00,44.9,23.2,30.16,West,275,1.0,9.0,42,0.00,,,0.00,Wunderground v.1.15,2013-01-23 19:07:00,
2013-01-23 14:12:00,45.4,24.2,30.16,North,10,1.0,7.0,43,0.00,,,0.00,Wunderground v.1.15,2013-01-23 19:12:00,
2013-01-23 14:17:00,45.5,23.1,30.16,NE,36,5.0,12.0,41,0.00,,,0.00,Wunderground v.1.15,2013-01-23 19:17:00,
2013-01-23 14:22:00,45.2,22.9,30.16,NW,315,2.0,6.0,41,0.00,,,0.00,Wunderground v.1.15,2013-01-23 19:22:00,
2013-01-23 14:27:00,44.9,22.6,30.15,West,272,1.0,9.0,41,0.00,,,0.00,Wunderground v.1.15,2013-01-23 19:27:00,
2013-01-23 14:32:00,45.0,22.7,30.15,West,263,1.0,6.0,41,0.00,,,0.00,Wunderground v.1.15,2013-01-23 19:32:00,
2013-01-23 14:37:00,44.8,22.5,30.15,NW,313,4.0,10.0,41,0.00,,,0.00,Wunderground v.1.15,2013-01-23 19:37:00,
2013-01-23 14:42:00,45.0,23.3,30.15,NNE,27,2.0,6.0,42,0.00,,,0.00,Wunderground v.1.15,2013-01-23 19:42:00,
2013-01-23 14:47:00,45.2,23.4,30.15,NW,311,3.0,11.0,42,0.00,,,0.00,Wunderground v.1.15,2013-01-23 19:47:00,
2013-01-23 14:52:00,45.6,23.8,30.15,WNW,295,0.0,3.0,42,0.00,,,0.00,Wunderground v.1.15,2013-01-23 19:52:00,
2013-01-23 14:57:00,46.3,23.9,30.15,South,187,1.0,5.0,41,0.00,,,0.00,Wunderground v.1.15,2013-01-23 19:57:00,
2013-01-23 15:02:00,46.3,22.7,30.14,East,92,2.0,4.0,39,0.00,,,0.00,Wunderground v.1.15,2013-01-23 20:02:00,
2013-01-23 15:07:00,46.3,23.3,30.14,SW,218,1.0,4.0,40,0.00,,,0.00,Wunderground v.1.15,2013-01-23 20:07:00,
2013-01-23 15:13:00,46.2,23.8,30.14,SSW,201,1.0,6.0,41,0.00,,,0.00,Wunderground v.1.15,2013-01-23 20:13:00,
2013-01-23 15:18:00,46.0,23.0,30.14,South,182,3.0,6.0,40,0.00,,,0.00,Wunderground v.1.15,2013-01-23 20:18:00,
2013-01-23 15:23:00,45.9,22.9,30.13,SW,229,1.0,3.0,40,0.00,,,0.00,Wunderground v.1.15,2013-01-23 20:23:00,
2013-01-23 15:27:00,46.1,23.7,30.13,SE,144,1.0,4.0,41,0.00,,,0.00,Wunderground v.1.15,2013-01-23 20:27:00,
2013-01-23 15:33:00,46.1,23.7,30.13,East,90,1.0,6.0,41,0.00,,,-99.99,WeatherLink 6.0.0,2013-01-23 20:33:00,
2013-01-23 15:38:00,45.7,23.3,30.13,SE,145,1.0,9.0,41,0.00,,,0.00,Wunderground v.1.15,2013-01-23 20:38:00,
2013-01-23 15:43:00,45.6,23.8,30.12,SE,129,5.0,10.0,42,0.00,,,0.00,Wunderground v.1.15,2013-01-23 20:43:00,
2013-01-23 15:48:00,45.4,23.6,30.12,SE,130,1.0,10.0,42,0.00,,,0.00,Wunderground v.1.15,2013-01-23 20:48:00,
2013-01-23 15:53:00,45.6,23.8,30.12,NNW,340,0.0,5.0,42,0.00,,,0.00,Wunderground v.1.15,2013-01-23 20:53:00,
2013-01-23 15:58:00,45.7,23.9,30.12,East,98,0.0,5.0,42,0.00,,,0.00,Wunderground v.1.15,2013-01-23 20:58:00,
2013-01-23 16:00:00,45.8,23.4,30.12,SE,135,2.0,10.0,41,0.00,,,-99.99,WeatherLink 6.0.0,2013-01-23 21:00:00,
2013-01-23 16:03:00,45.9,24.1,30.12,SE,129,0.0,4.0,42,0.00,,,0.00,Wunderground v.1.15,2013-01-23 21:03:00,
2013-01-23 16:08:00,45.9,24.1,30.12,SW,232,0.0,5.0,42,0.00,,,0.00,Wunderground v.1.15,2013-01-23 21:08:00,
2013-01-23 16:13:00,45.8,24.0,30.12,South,169,0.0,4.0,42,0.00,,,0.00,Wunderground v.1.15,2013-01-23 21:13:00,
2013-01-23 16:18:00,45.8,24.0,30.11,SW,219,2.0,5.0,42,0.00,,,0.00,Wunderground v.1.15,2013-01-23 21:18:00,
2013-01-23 16:23:00,45.7,23.9,30.11,SW,227,0.0,7.0,42,0.00,,,0.00,Wunderground v.1.15,2013-01-23 21:23:00,
2013-01-23 16:28:00,45.6,23.8,30.11,South,185,1.0,7.0,42,0.00,,,0.00,Wunderground v.1.15,2013-01-23 21:28:00,
2013-01-23 16:33:00,45.6,24.4,30.12,SW,225,1.0,7.0,43,0.00,,,-99.99,WeatherLink 6.0.0,2013-01-23 21:33:00,
2013-01-23 16:38:00,45.3,23.5,30.11,SSW,196,2.0,7.0,42,0.00,,,0.00,Wunderground v.1.15,2013-01-23 21:38:00,
2013-01-23 16:43:00,45.0,23.8,30.11,SSW,200,2.0,6.0,43,0.00,,,0.00,Wunderground v.1.15,2013-01-23 21:43:00,
2013-01-23 16:48:00,44.9,23.7,30.11,SSW,209,1.0,6.0,43,0.00,,,0.00,Wunderground v.1.15,2013-01-23 21:48:00,
2013-01-23 16:53:00,44.7,24.1,30.11,South,176,0.0,4.0,44,0.00,,,0.00,Wunderground v.1.15,2013-01-23 21:53:00,
2013-01-23 16:58:00,44.6,24.0,30.11,South,183,2.0,4.0,44,0.00,,,0.00,Wunderground v.1.15,2013-01-23 21:58:00,
2013-01-23 17:03:00,44.5,23.9,30.11,South,186,0.0,4.0,44,0.00,,,0.00,Wunderground v.1.15,2013-01-23 22:03:00,
2013-01-23 17:09:00,44.4,24.4,30.11,South,187,1.0,4.0,45,0.00,,,0.00,Wunderground v.1.15,2013-01-23 22:09:00,
2013-01-23 17:13:00,44.2,24.2,30.11,SW,236,2.0,3.0,45,0.00,,,0.00,Wunderground v.1.15,2013-01-23 22:13:00,
2013-01-23 17:19:00,43.9,24.4,30.11,SW,216,0.0,3.0,46,0.00,,,0.00,Wunderground v.1.15,2013-01-23 22:19:00,
2013-01-23 17:23:00,43.5,24.1,30.11,SSW,192,1.0,3.0,46,0.00,,,0.00,Wunderground v.1.15,2013-01-23 22:23:00,
2013-01-23 17:29:00,43.3,23.9,30.12,SW,228,1.0,4.0,46,0.00,,,0.00,Wunderground v.1.15,2013-01-23 22:29:00,
2013-01-23 17:30:00,43.3,23.9,30.12,SW,225,1.0,4.0,46,0.00,,,-99.99,WeatherLink 6.0.0,2013-01-23 22:30:00,
2013-01-23 17:34:00,43.1,24.2,30.12,SW,221,0.0,1.0,47,0.00,,,0.00,Wunderground v.1.15,2013-01-23 22:34:00,
2013-01-23 17:39:00,42.8,23.9,30.11,SW,221,0.0,1.0,47,0.00,,,0.00,Wunderground v.1.15,2013-01-23 22:39:00,
2013-01-23 17:44:00,42.5,23.7,30.11,SW,222,0.0,1.0,47,0.00,,,0.00,Wunderground v.1.15,2013-01-23 22:44:00,
2013-01-23 17:49:00,42.3,23.5,30.11,SSW,204,0.0,3.0,47,0.00,,,0.00,Wunderground v.1.15,2013-01-23 22:49:00,
2013-01-23 17:54:00,42.0,23.7,30.11,SSW,204,0.0,1.0,48,0.00,,,0.00,Wunderground v.1.15,2013-01-23 22:54:00,
2013-01-23 17:59:00,41.7,23.4,30.11,SSW,196,0.0,2.0,48,0.00,,,0.00,Wunderground v.1.15,2013-01-23 22:59:00,
2013-01-23 18:04:00,41.4,23.6,30.11,SSW,196,0.0,0.0,49,0.00,,,0.00,Wunderground v.1.15,2013-01-23 23:04:00,
2013-01-23 18:09:00,41.1,23.9,30.12,SSW,196,0.0,1.0,50,0.00,,,0.00,Wunderground v.1.15,2013-01-23 23:09:00,
2013-01-23 18:14:00,40.7,23.5,30.12,SSW,196,0.0,0.0,50,0.00,,,0.00,Wunderground v.1.15,2013-01-23 23:14:00,
2013-01-23 18:19:00,40.3,23.6,30.11,SSW,196,0.0,2.0,51,0.00,,,0.00,Wunderground v.1.15,2013-01-23 23:19:00,
2013-01-23 18:24:00,39.9,24.1,30.11,SSW,196,0.0,1.0,53,0.00,,,0.00,Wunderground v.1.15,2013-01-23 23:24:00,
2013-01-23 18:29:00,39.5,23.8,30.11,SSW,196,0.0,1.0,53,0.00,,,0.00,Wunderground v.1.15,2013-01-23 23:29:00,
2013-01-23 18:34:00,39.1,24.3,30.11,SSW,196,0.0,2.0,55,0.00,,,0.00,Wunderground v.1.15,2013-01-23 23:34:00,
2013-01-23 18:39:00,38.8,24.0,30.11,SSW,196,0.0,2.0,55,0.00,,,0.00,Wunderground v.1.15,2013-01-23 23:39:00,
2013-01-23 18:44:00,38.8,23.6,30.11,SSW,196,0.0,1.0,54,0.00,,,0.00,Wunderground v.1.15,2013-01-23 23:44:00,
2013-01-23 18:49:00,38.8,23.6,30.11,SSW,196,0.0,1.0,54,0.00,,,0.00,Wunderground v.1.15,2013-01-23 23:49:00,
2013-01-23 18:54:00,38.9,23.7,30.10,SSW,196,0.0,1.0,54,0.00,,,0.00,Wunderground v.1.15,2013-01-23 23:54:00,
2013-01-23 18:59:00,39.0,23.7,30.11,SSW,196,1.0,1.0,54,0.00,,,0.00,Wunderground v.1.15,2013-01-23 23:59:00,
2013-01-23 19:04:00,38.8,23.6,30.11,SSW,196,0.0,1.0,54,0.00,,,0.00,Wunderground v.1.15,2013-01-24 00:04:00,
2013-01-23 19:09:00,38.8,24.0,30.10,SSW,196,0.0,0.0,55,0.00,,,0.00,Wunderground v.1.15,2013-01-24 00:09:00,
2013-01-23 19:14:00,38.7,23.5,30.10,SSW,196,0.0,1.0,54,0.00,,,0.00,Wunderground v.1.15,2013-01-24 00:14:00,
2013-01-23 19:19:00,38.7,23.9,30.10,SSW,196,0.0,0.0,55,0.00,,,0.00,Wunderground v.1.15,2013-01-24 00:19:00,
2013-01-23 19:24:00,38.6,23.8,30.10,SSW,196,0.0,1.0,55,0.00,,,0.00,Wunderground v.1.15,2013-01-24 00:24:00,
2013-01-23 19:29:00,38.6,24.2,30.10,SSW,196,0.0,0.0,56,0.00,,,0.00,Wunderground v.1.15,2013-01-24 00:29:00,
2013-01-23 19:34:00,38.4,24.1,30.10,SSW,196,0.0,1.0,56,0.00,,,0.00,Wunderground v.1.15,2013-01-24 00:34:00,
2013-01-23 19:39:00,38.1,23.8,30.10,SSW,196,0.0,0.0,56,0.00,,,0.00,Wunderground v.1.15,2013-01-24 00:39:00,
2013-01-23 19:45:00,37.9,24.0,30.09,SSW,196,1.0,1.0,57,0.00,,,0.00,Wunderground v.1.15,2013-01-24 00:45:00,
2013-01-23 19:50:00,37.7,23.8,30.09,SSW,196,0.0,0.0,57,0.00,,,0.00,Wunderground v.1.15,2013-01-24 00:50:00,
2013-01-23 19:55:00,37.6,24.1,30.08,SSW,195,0.0,1.0,58,0.00,,,0.00,Wunderground v.1.15,2013-01-24 00:55:00,
2013-01-23 20:00:00,37.6,24.1,30.08,SSW,195,0.0,0.0,58,0.00,,,0.00,Wunderground v.1.15,2013-01-24 01:00:00,
2013-01-23 20:05:00,37.7,24.2,30.09,SSW,195,0.0,2.0,58,0.00,,,0.00,Wunderground v.1.15,2013-01-24 01:05:00,
2013-01-23 20:10:00,37.9,26.0,30.09,SSW,195,0.0,0.0,62,0.00,,,0.00,Wunderground v.1.15,2013-01-24 01:10:00,
2013-01-23 20:15:00,38.0,24.5,30.08,SSW,195,0.0,0.0,58,0.00,,,0.00,Wunderground v.1.15,2013-01-24 01:15:00,
2013-01-23 20:20:00,38.1,25.0,30.08,SSW,195,0.0,0.0,59,0.00,,,0.00,Wunderground v.1.15,2013-01-24 01:20:00,
2013-01-23 20:25:00,38.2,25.9,30.08,SSW,195,0.0,0.0,61,0.00,,,0.00,Wunderground v.1.15,2013-01-24 01:25:00,
2013-01-23 20:30:00,38.1,26.2,30.08,SSW,195,0.0,0.0,62,0.00,,,0.00,Wunderground v.1.15,2013-01-24 01:30:00,
2013-01-23 20:35:00,38.1,25.4,30.08,SSW,195,0.0,0.0,60,0.00,,,0.00,Wunderground v.1.15,2013-01-24 01:35:00,
2013-01-23 20:40:00,38.2,25.1,30.08,SSW,195,0.0,0.0,59,0.00,,,0.00,Wunderground v.1.15,2013-01-24 01:40:00,
2013-01-23 20:45:00,38.3,24.8,30.08,SSW,195,0.0,0.0,58,0.00,,,0.00,Wunderground v.1.15,2013-01-24 01:45:00,
2013-01-23 20:50:00,38.3,25.6,30.08,SSW,195,0.0,0.0,60,0.00,,,0.00,Wunderground v.1.15,2013-01-24 01:50:00,
2013-01-23 20:55:00,37.9,26.4,30.07,SSW,195,0.0,0.0,63,0.00,,,0.00,Wunderground v.1.15,2013-01-24 01:55:00,
2013-01-23 21:00:00,37.5,24.9,30.07,SSW,195,0.0,0.0,60,0.00,,,0.00,Wunderground v.1.15,2013-01-24 02:00:00,
2013-01-23 21:05:00,36.9,24.7,30.07,SSW,195,0.0,0.0,61,0.00,,,0.00,Wunderground v.1.15,2013-01-24 02:05:00,
2013-01-23 21:10:00,36.5,24.3,30.06,SSW,195,0.0,0.0,61,0.00,,,0.00,Wunderground v.1.15,2013-01-24 02:10:00,
2013-01-23 21:15:00,36.4,24.6,30.06,SSW,195,0.0,1.0,62,0.00,,,0.00,Wunderground v.1.15,2013-01-24 02:15:00,
2013-01-23 21:20:00,36.5,25.1,30.06,SSW,195,0.0,0.0,63,0.00,,,0.00,Wunderground v.1.15,2013-01-24 02:20:00,
2013-01-23 21:25:00,36.7,25.7,30.06,SSW,195,0.0,0.0,64,0.00,,,0.00,Wunderground v.1.15,2013-01-24 02:25:00,
2013-01-23 21:30:00,37.0,25.9,30.06,SSW,195,0.0,0.0,64,0.00,,,0.00,Wunderground v.1.15,2013-01-24 02:30:00,
2013-01-23 21:35:00,37.3,25.5,30.06,SSW,195,0.0,1.0,62,0.00,,,0.00,Wunderground v.1.15,2013-01-24 02:35:00,
2013-01-23 21:40:00,37.5,25.3,30.05,SSW,195,0.0,0.0,61,0.00,,,0.00,Wunderground v.1.15,2013-01-24 02:40:00,
2013-01-23 21:45:00,37.6,25.4,30.05,SSW,195,0.0,0.0,61,0.00,,,0.00,Wunderground v.1.15,2013-01-24 02:45:00,
2013-01-23 21:50:00,37.5,25.7,30.05,SSW,195,0.0,0.0,62,0.00,,,0.00,Wunderground v.1.15,2013-01-24 02:50:00,
2013-01-23 21:55:00,37.1,25.3,30.06,SSW,195,0.0,0.0,62,0.00,,,0.00,Wunderground v.1.15,2013-01-24 02:55:00,
2013-01-23 22:00:00,36.8,25.8,30.05,SSW,195,0.0,0.0,64,0.00,,,0.00,Wunderground v.1.15,2013-01-24 03:00:00,
2013-01-23 22:05:00,36.2,25.9,30.05,SSW,195,0.0,0.0,66,0.00,,,0.00,Wunderground v.1.15,2013-01-24 03:05:00,
2013-01-23 22:10:00,35.5,25.3,30.05,SSW,195,0.0,0.0,66,0.00,,,0.00,Wunderground v.1.15,2013-01-24 03:10:00,
2013-01-23 22:15:00,34.8,25.0,30.05,SSW,195,0.0,0.0,67,0.00,,,0.00,Wunderground v.1.15,2013-01-24 03:15:00,
2013-01-23 22:20:00,34.4,24.9,30.05,SSW,195,0.0,1.0,68,0.00,,,0.00,Wunderground v.1.15,2013-01-24 03:20:00,
2013-01-23 22:25:00,34.3,25.2,30.04,SSW,195,0.0,1.0,69,0.00,,,0.00,Wunderground v.1.15,2013-01-24 03:25:00,
2013-01-23 22:30:00,34.1,25.3,30.03,SSW,195,0.0,0.0,70,0.00,,,0.00,Wunderground v.1.15,2013-01-24 03:30:00,
2013-01-23 22:35:00,33.8,25.4,30.03,SSW,195,0.0,1.0,71,0.00,,,0.00,Wunderground v.1.15,2013-01-24 03:35:00,
2013-01-23 22:40:00,33.4,25.0,30.03,SSW,195,0.0,0.0,71,0.00,,,0.00,Wunderground v.1.15,2013-01-24 03:40:00,
2013-01-23 22:45:00,33.2,24.8,30.03,SSW,195,0.0,0.0,71,0.00,,,0.00,Wunderground v.1.15,2013-01-24 03:45:00,
2013-01-23 22:50:00,33.3,26.9,30.03,SSW,195,0.0,0.0,77,0.00,,,0.00,Wunderground v.1.15,2013-01-24 03:50:00,
2013-01-23 22:55:00,33.3,25.2,30.03,SSW,195,0.0,1.0,72,0.00,,,0.00,Wunderground v.1.15,2013-01-24 03:55:00,
2013-01-23 23:00:00,32.8,25.1,30.01,SSW,195,0.0,1.0,73,0.00,,,0.00,Wunderground v.1.15,2013-01-24 04:00:00,
2013-01-23 23:06:00,32.5,26.1,30.01,SSW,195,0.0,1.0,77,0.00,,,0.00,Wunderground v.1.15,2013-01-24 04:06:00,
2013-01-23 23:11:00,32.4,25.4,30.02,SSW,195,0.0,0.0,75,0.00,,,0.00,Wunderground v.1.15,2013-01-24 04:11:00,
2013-01-23 23:16:00,32.8,25.7,30.01,SSW,195,0.0,1.0,75,0.00,,,0.00,Wunderground v.1.15,2013-01-24 04:16:00,
2013-01-23 23:21:00,34.0,26.3,30.01,SSW,195,0.0,1.0,73,0.00,,,0.00,Wunderground v.1.15,2013-01-24 04:21:00,
2013-01-23 23:26:00,34.9,27.1,30.01,SSW,198,0.0,2.0,73,0.00,,,0.00,Wunderground v.1.15,2013-01-24 04:26:00,
2013-01-23 23:31:00,35.4,26.9,30.01,SSW,198,0.0,0.0,71,0.00,,,0.00,Wunderground v.1.15,2013-01-24 04:31:00,
2013-01-23 23:36:00,36.1,27.3,30.01,SSW,198,0.0,1.0,70,0.00,,,0.00,Wunderground v.1.15,2013-01-24 04:36:00,
2013-01-23 23:41:00,36.9,27.3,30.00,SSW,206,0.0,3.0,68,0.00,,,0.00,Wunderground v.1.15,2013-01-24 04:41:00,
2013-01-23 23:46:00,37.4,28.5,30.00,SSW,207,0.0,3.0,70,0.00,,,0.00,Wunderground v.1.15,2013-01-24 04:46:00,
2013-01-23 23:51:00,37.7,27.4,30.00,SSE,161,0.0,2.0,66,0.00,,,0.00,Wunderground v.1.15,2013-01-24 04:51:00,
2013-01-23 23:56:00,37.6,27.3,30.00,SSE,165,0.0,2.0,66,0.00,,,0.00,Wunderground v.1.15,2013-01-24 04:56:00,